Search for airport 
image banner adimage banner adimage banner ad
image banner ad

O15 - Turlock Muni

Located in Turlock, United States

ICAO - O15, IATA -

Data provided by Airmate  

General information

Coordinates: N37°29'3" W120°41'50"
Elevation is 161 feet MSL.
Magnetic variation is 16° East
View others Airports in California

Operational data

Special qualification required
Current time UTC:
Current local time:
Weather at : KMER - Castle ( 16 km )
METAR: KMER 211345Z 32005KT 10SM SKC 18/12 A2985
TAF: KMER 211120Z 2112/2212 32007KT P6SM SKC
View NOTAMs / SUP AIP / TFR affecting this airport [VIEW]
Communications frequencies: [VIEW]

Runways:

RWY identifierQFULength (ft)Width (ft)SurfaceLDA (ft)
12298550ASPH
30298550ASPH

Airport contact information

Address: Turlock United States

Satellite view of O15